createdAt,value
2018-08-24T00:06:43.049Z,24.5
2018-08-24T00:16:42.288Z,24.4
2018-08-24T00:26:41.528Z,24.4
2018-08-24T00:36:40.768Z,24.4
2018-08-24T00:46:40.010Z,24.3
2018-08-24T00:56:39.251Z,24.2
2018-08-24T01:06:38.499Z,24.1
2018-08-24T01:16:37.739Z,24.1
2018-08-24T01:26:36.974Z,23.9
2018-08-24T01:36:36.264Z,23.9
2018-08-24T01:46:35.453Z,23.9
2018-08-24T01:56:34.694Z,23.9
2018-08-24T02:06:33.936Z,23.9
2018-08-24T02:16:33.175Z,23.9
2018-08-24T02:26:32.415Z,23.8
2018-08-24T02:36:31.655Z,23.9
2018-08-24T02:46:30.897Z,23.9
2018-08-24T02:56:30.137Z,23.8
2018-08-24T03:06:29.390Z,23.8
2018-08-24T03:16:28.722Z,23.8
2018-08-24T03:26:27.869Z,23.6
2018-08-24T03:36:27.099Z,23.6
2018-08-24T03:46:26.343Z,23.4
2018-08-24T03:56:25.581Z,23.4
2018-08-24T04:06:24.821Z,23.4
2018-08-24T04:16:24.063Z,23.3
2018-08-24T04:26:23.356Z,23.2
2018-08-24T04:36:22.549Z,23.2
2018-08-24T04:46:21.792Z,23.2
2018-08-24T04:56:21.033Z,23.3
2018-08-24T05:06:20.280Z,23.5
2018-08-24T05:16:19.568Z,23.6
2018-08-24T05:26:18.762Z,23.9
2018-08-24T05:36:18.014Z,24
2018-08-24T05:46:17.249Z,24.2
2018-08-24T05:56:16.490Z,24.4
2018-08-24T06:06:15.731Z,24.6
2018-08-24T06:16:14.972Z,24.9
2018-08-24T06:26:14.217Z,25.1
2018-08-24T06:36:13.456Z,25.3
2018-08-24T06:46:12.796Z,25.4
2018-08-24T06:56:11.948Z,25.6
2018-08-24T07:06:11.180Z,25.8
2018-08-24T07:16:10.421Z,25.9
2018-08-24T07:26:09.664Z,26.1
2018-08-24T07:36:08.912Z,26.3
2018-08-24T07:46:08.148Z,26.5
2018-08-24T07:56:07.390Z,26.6
2018-08-24T08:06:06.630Z,26.8
2018-08-24T08:16:05.872Z,26.9
2018-08-24T08:26:05.113Z,26.9
2018-08-24T08:36:04.354Z,27
2018-08-24T08:46:03.597Z,27.1
2018-08-24T08:56:02.841Z,27.1
2018-08-24T09:06:02.112Z,27.2
2018-08-24T09:16:01.333Z,27.2
2018-08-24T09:26:00.565Z,27.3
2018-08-24T09:35:59.806Z,27.4
2018-08-24T09:45:59.044Z,27.4
2018-08-24T09:55:58.285Z,27.6
2018-08-24T10:05:57.527Z,27.7
2018-08-24T10:15:56.769Z,27.8
2018-08-24T10:25:56.009Z,27.8
2018-08-24T10:35:55.249Z,27.8
2018-08-24T10:45:54.502Z,27.8
2018-08-24T10:55:53.801Z,27.8
2018-08-24T11:05:52.973Z,27.8
2018-08-24T11:15:52.213Z,27.9
2018-08-24T11:25:51.455Z,27.9
2018-08-24T11:35:50.711Z,27.9
2018-08-24T11:45:49.942Z,27.9
2018-08-24T11:55:49.178Z,27.9
2018-08-24T12:05:48.425Z,27.9
2018-08-24T12:15:47.666Z,27.9
2018-08-24T12:25:46.905Z,27.9
2018-08-24T12:35:46.150Z,27.9
2018-08-24T12:45:45.387Z,27.9
2018-08-24T12:55:44.634Z,27.9
2018-08-24T13:05:43.871Z,27.9
2018-08-24T13:15:43.116Z,27.9
2018-08-24T13:25:42.353Z,28
2018-08-24T13:35:41.597Z,28
2018-08-24T13:45:40.836Z,28
2018-08-24T13:55:40.135Z,28.1
2018-08-24T14:05:39.325Z,27.9
2018-08-24T14:15:38.561Z,27.9
2018-08-24T14:25:37.873Z,28.3
2018-08-24T14:35:37.049Z,28.1
2018-08-24T14:45:36.292Z,27.9
2018-08-24T14:55:35.528Z,27.9
2018-08-24T15:05:34.784Z,27.7
2018-08-24T15:15:34.018Z,27.6
2018-08-24T15:25:33.267Z,27.8
2018-08-24T15:35:32.501Z,27.7
2018-08-24T15:45:31.749Z,27.8
2018-08-24T15:55:30.997Z,27.6
2018-08-24T16:05:30.236Z,27.6
2018-08-24T16:15:29.481Z,27.5
2018-08-24T16:25:28.783Z,27.4
2018-08-24T16:35:27.972Z,27.4
2018-08-24T16:45:27.225Z,27.2
2018-08-24T16:55:26.462Z,27
2018-08-24T17:05:25.709Z,26.8
2018-08-24T17:15:24.968Z,26.8
2018-08-24T17:25:24.197Z,26.7
2018-08-24T17:35:23.450Z,26.7
2018-08-24T17:45:22.700Z,26.6
2018-08-24T17:55:21.935Z,26.8
2018-08-24T18:05:21.181Z,26.8
2018-08-24T18:15:20.425Z,26.9
2018-08-24T18:25:19.672Z,26.9
2018-08-24T18:35:18.913Z,26.8
2018-08-24T18:45:18.156Z,26.9
2018-08-24T18:55:17.405Z,26.9
2018-08-24T19:05:16.701Z,26.8
2018-08-24T19:15:15.896Z,26.8
2018-08-24T19:35:14.393Z,26.8
2018-08-24T19:45:13.639Z,26.7
2018-08-24T19:55:13.001Z,26.8
2018-08-24T20:05:12.125Z,26.8
2018-08-24T20:15:11.371Z,26.7
2018-08-24T20:25:10.616Z,26.6
2018-08-24T20:35:09.911Z,26.4
2018-08-24T20:45:09.103Z,26.3
2018-08-24T20:55:08.409Z,26.1
2018-08-24T21:05:07.593Z,25.8
2018-08-24T21:15:06.948Z,25.7
2018-08-24T21:25:06.075Z,25.5
2018-08-24T21:35:05.320Z,25.3
2018-08-24T21:45:04.562Z,25.1
2018-08-24T21:55:03.810Z,25.1
2018-08-24T22:05:03.046Z,24.9
2018-08-24T22:15:02.290Z,24.8
2018-08-24T22:25:01.539Z,24.7
2018-08-24T22:35:00.771Z,24.6
2018-08-24T22:45:00.014Z,24.5
2018-08-24T22:54:59.255Z,24.4
2018-08-24T23:04:58.505Z,24.4
2018-08-24T23:14:57.738Z,24.3
2018-08-24T23:24:56.980Z,24.3
2018-08-24T23:34:56.222Z,24.3
2018-08-24T23:44:55.465Z,24.2
2018-08-24T23:54:54.702Z,23.5
